createdAt,value
2023-02-26T00:00:38.166Z,39.58
2023-02-26T00:03:05.675Z,39.63
2023-02-26T00:05:32.812Z,40.51
2023-02-26T00:07:59.972Z,39.78
2023-02-26T00:10:27.709Z,39.50
2023-02-26T00:12:54.917Z,39.06
2023-02-26T00:15:22.369Z,41.12
2023-02-26T00:17:57.595Z,39.42
2023-02-26T00:20:26.079Z,39.48
2023-02-26T00:22:53.686Z,39.35
2023-02-26T00:25:20.971Z,39.42
2023-02-26T00:27:48.260Z,41.05
2023-02-26T00:30:15.745Z,42.14
2023-02-26T00:32:43.119Z,42.38
2023-02-26T00:35:14.586Z,41.84
2023-02-26T00:38:00.576Z,42.93
2023-02-26T00:40:27.658Z,41.45
2023-02-26T00:42:55.106Z,41.89
2023-02-26T00:45:22.373Z,42.64
2023-02-26T00:47:51.722Z,42.50
2023-02-26T00:50:20.340Z,40.45
2023-02-26T00:52:53.429Z,40.73
2023-02-26T00:55:21.184Z,40.96
2023-02-26T00:57:48.329Z,41.98
2023-02-26T01:00:16.169Z,42.45
2023-02-26T01:02:43.846Z,43.00
2023-02-26T01:05:11.204Z,43.36
2023-02-26T01:07:45.321Z,41.60
2023-02-26T01:10:13.700Z,41.61
2023-02-26T01:12:41.367Z,40.26
2023-02-26T01:15:09.713Z,44.60
2023-02-26T01:17:52.247Z,43.63
2023-02-26T01:20:21.333Z,43.40
2023-02-26T01:22:51.870Z,42.57
2023-02-26T01:25:22.280Z,41.58
2023-02-26T01:27:50.266Z,43.26
2023-02-26T01:30:17.793Z,42.25
2023-02-26T01:32:56.988Z,40.75
2023-02-26T01:35:44.290Z,41.67
2023-02-26T01:38:17.574Z,43.15
2023-02-26T01:40:56.888Z,40.73
2023-02-26T01:43:26.585Z,42.25
2023-02-26T01:46:04.256Z,43.33
2023-02-26T01:48:37.769Z,42.28
2023-02-26T01:51:05.514Z,41.85
2023-02-26T01:53:32.703Z,41.63
2023-02-26T01:56:00.831Z,42.85
2023-02-26T01:58:28.788Z,41.53
2023-02-26T02:00:55.964Z,43.22
2023-02-26T02:03:23.629Z,41.16
2023-02-26T02:05:52.286Z,40.74
2023-02-26T02:08:19.911Z,42.73
2023-02-26T02:10:47.895Z,41.33
2023-02-26T02:13:15.008Z,41.76
2023-02-26T02:15:46.521Z,40.83
2023-02-26T02:18:35.481Z,41.45
2023-02-26T02:21:14.720Z,40.53
2023-02-26T02:23:43.738Z,40.78
2023-02-26T02:26:20.546Z,40.03
2023-02-26T02:29:03.052Z,40.13
2023-02-26T02:31:35.027Z,39.83
2023-02-26T02:34:13.454Z,40.33
2023-02-26T02:36:49.803Z,40.20
2023-02-26T02:39:23.655Z,40.14
2023-02-26T02:41:53.384Z,45.22
2023-02-26T02:44:20.916Z,43.99
2023-02-26T02:46:48.892Z,41.36
2023-02-26T02:49:22.454Z,41.20
2023-02-26T02:52:00.644Z,41.18
2023-02-26T02:54:36.131Z,41.98
2023-02-26T02:57:08.363Z,42.36
2023-02-26T02:59:35.733Z,41.87
2023-02-26T03:02:23.261Z,44.21
2023-02-26T03:04:50.772Z,43.61
2023-02-26T03:07:17.964Z,42.71
2023-02-26T03:09:45.159Z,44.98
2023-02-26T03:12:12.670Z,45.27
2023-02-26T03:14:40.013Z,42.93
2023-02-26T03:17:07.449Z,43.95
2023-02-26T03:20:07.597Z,43.91
2023-02-26T03:22:38.016Z,43.03
2023-02-26T03:25:10.190Z,43.44
2023-02-26T03:27:53.362Z,43.27
2023-02-26T03:30:23.063Z,43.89
2023-02-26T03:32:53.584Z,44.81
2023-02-26T03:35:23.047Z,45.04
2023-02-26T03:37:50.770Z,44.52
2023-02-26T03:40:19.644Z,47.42
2023-02-26T03:42:58.076Z,46.31
2023-02-26T03:45:29.413Z,44.38
2023-02-26T03:47:56.831Z,43.88
2023-02-26T03:50:30.147Z,44.36
2023-02-26T03:52:58.632Z,44.18
2023-02-26T03:55:26.935Z,44.00
2023-02-26T03:57:55.440Z,43.31
2023-02-26T04:00:23.754Z,44.90
2023-02-26T04:02:54.730Z,44.83
2023-02-26T04:05:23.449Z,43.55
2023-02-26T04:07:50.881Z,44.12
2023-02-26T04:10:19.623Z,44.27
2023-02-26T04:12:47.017Z,44.79
2023-02-26T04:15:14.511Z,43.87
2023-02-26T04:17:42.631Z,43.37
2023-02-26T04:20:10.927Z,44.19
2023-02-26T04:22:38.467Z,43.82
2023-02-26T04:25:05.860Z,43.46
2023-02-26T04:27:33.127Z,45.27
2023-02-26T04:30:00.692Z,44.19
2023-02-26T04:32:27.851Z,43.19
2023-02-26T04:34:55.060Z,44.77
2023-02-26T04:37:22.600Z,42.93
2023-02-26T04:39:49.753Z,42.30
2023-02-26T04:42:16.888Z,43.36
2023-02-26T04:44:44.309Z,43.92
2023-02-26T04:47:12.984Z,45.74
2023-02-26T04:49:40.274Z,45.08
2023-02-26T04:52:07.815Z,44.24
2023-02-26T04:54:35.400Z,44.13
2023-02-26T04:57:02.522Z,45.48
2023-02-26T04:59:30.119Z,44.56
2023-02-26T05:01:58.011Z,43.27
2023-02-26T05:04:25.864Z,45.19
2023-02-26T05:06:54.329Z,45.13
2023-02-26T05:09:21.913Z,43.99
2023-02-26T05:11:49.679Z,43.34
2023-02-26T05:14:17.358Z,43.57
2023-02-26T05:16:44.578Z,44.65
2023-02-26T05:19:11.843Z,45.53
2023-02-26T05:21:39.452Z,44.83
2023-02-26T05:24:06.760Z,47.20
2023-02-26T05:26:33.891Z,47.05
2023-02-26T05:29:01.283Z,46.11
2023-02-26T05:31:28.727Z,48.04
2023-02-26T05:33:55.911Z,45.89
2023-02-26T05:36:23.640Z,46.32
2023-02-26T05:38:51.025Z,45.48
2023-02-26T05:41:18.172Z,45.01
2023-02-26T05:43:45.597Z,44.28
2023-02-26T05:46:14.087Z,43.64
2023-02-26T05:48:41.275Z,44.08
2023-02-26T05:51:10.031Z,44.65
2023-02-26T05:53:37.217Z,45.80
2023-02-26T05:56:05.907Z,43.61
2023-02-26T05:58:34.029Z,44.48
2023-02-26T06:01:01.363Z,44.95
2023-02-26T06:03:28.757Z,44.75
2023-02-26T06:05:55.924Z,43.89
2023-02-26T06:08:23.075Z,44.18
2023-02-26T06:10:51.278Z,43.16
2023-02-26T06:13:18.647Z,44.47
2023-02-26T06:15:45.807Z,44.57
2023-02-26T06:18:13.207Z,43.39
2023-02-26T06:20:40.323Z,43.68
2023-02-26T06:23:07.505Z,44.10
2023-02-26T06:25:34.917Z,43.00
2023-02-26T06:28:02.049Z,43.60
2023-02-26T06:30:29.188Z,43.54
2023-02-26T06:32:56.638Z,44.18
2023-02-26T06:35:24.361Z,44.30
2023-02-26T06:37:51.566Z,44.67
2023-02-26T06:40:19.007Z,43.14
2023-02-26T06:42:46.141Z,44.50
2023-02-26T06:45:13.357Z,43.90
2023-02-26T06:47:40.796Z,45.28
2023-02-26T06:50:08.312Z,46.35
2023-02-26T06:52:35.737Z,45.30
2023-02-26T06:55:03.661Z,45.38
2023-02-26T06:57:30.825Z,45.06
2023-02-26T06:59:58.016Z,43.99
2023-02-26T07:02:25.454Z,44.06
2023-02-26T07:04:52.794Z,45.28
2023-02-26T07:07:19.962Z,45.17
2023-02-26T07:09:47.598Z,45.12
2023-02-26T07:12:14.923Z,45.63
2023-02-26T07:14:43.155Z,45.81
2023-02-26T07:17:10.644Z,44.60
2023-02-26T07:19:37.808Z,44.70
2023-02-26T07:22:04.917Z,44.93
2023-02-26T07:24:32.322Z,44.82
2023-02-26T07:26:59.448Z,46.24
2023-02-26T07:29:26.594Z,45.96
2023-02-26T07:31:54.097Z,47.51
2023-02-26T07:34:21.522Z,47.17
2023-02-26T07:36:48.663Z,45.99
2023-02-26T07:39:16.155Z,45.00
2023-02-26T07:41:43.287Z,47.14
2023-02-26T07:44:14.326Z,46.77
2023-02-26T07:46:41.730Z,46.44
2023-02-26T07:49:09.885Z,44.71
2023-02-26T07:51:37.784Z,44.19
2023-02-26T07:54:05.234Z,44.93
2023-02-26T07:56:32.444Z,45.94
2023-02-26T07:58:59.571Z,43.89
2023-02-26T08:01:26.995Z,45.00
2023-02-26T08:03:54.457Z,46.55
2023-02-26T08:06:21.646Z,45.89
2023-02-26T08:08:48.820Z,47.06
2023-02-26T08:11:16.262Z,46.96
2023-02-26T08:13:43.400Z,45.99
2023-02-26T08:16:10.612Z,46.91
2023-02-26T08:18:38.086Z,48.31
2023-02-26T08:21:05.420Z,46.04
2023-02-26T08:23:32.699Z,45.48
2023-02-26T08:26:07.951Z,46.52
2023-02-26T08:28:35.082Z,44.95
2023-02-26T08:31:02.734Z,46.89
2023-02-26T08:33:29.964Z,44.74
2023-02-26T08:35:58.982Z,45.52
2023-02-26T08:38:26.802Z,44.23
2023-02-26T08:40:53.987Z,44.98
2023-02-26T08:43:21.388Z,44.20
2023-02-26T08:45:49.663Z,44.09
2023-02-26T08:48:16.942Z,43.97
2023-02-26T08:50:44.347Z,44.49
2023-02-26T08:53:12.859Z,45.01
2023-02-26T08:55:40.220Z,44.09
2023-02-26T08:58:08.176Z,42.65
2023-02-26T09:00:35.891Z,43.46
2023-02-26T09:03:03.690Z,44.26
2023-02-26T09:05:31.276Z,43.46
2023-02-26T09:07:58.726Z,44.79
2023-02-26T09:10:25.903Z,44.91
2023-02-26T09:12:53.071Z,45.94
2023-02-26T09:15:20.577Z,43.46
2023-02-26T09:17:48.147Z,44.85
2023-02-26T09:20:15.464Z,45.63
2023-02-26T09:22:42.891Z,45.00
2023-02-26T09:25:10.359Z,45.00
2023-02-26T09:27:37.519Z,45.23
2023-02-26T09:30:05.513Z,44.07
2023-02-26T09:32:32.894Z,46.03
2023-02-26T09:35:00.125Z,46.14
2023-02-26T09:37:27.573Z,43.58
2023-02-26T09:39:55.086Z,42.68
2023-02-26T09:42:28.017Z,43.29
2023-02-26T09:45:00.095Z,41.00
2023-02-26T09:47:28.586Z,42.12
2023-02-26T09:49:58.969Z,41.40
2023-02-26T09:52:27.996Z,41.74
2023-02-26T09:54:59.374Z,40.47
2023-02-26T09:57:30.554Z,39.69
2023-02-26T09:59:58.246Z,38.73
2023-02-26T10:02:37.724Z,39.65
2023-02-26T10:05:17.866Z,38.57
2023-02-26T10:07:51.234Z,39.10
2023-02-26T10:10:28.175Z,39.50
2023-02-26T10:12:55.408Z,37.73
2023-02-26T10:15:24.534Z,37.51
2023-02-26T10:18:11.905Z,37.60
2023-02-26T10:20:55.755Z,36.37
2023-02-26T10:23:32.525Z,35.36
2023-02-26T10:26:05.487Z,36.00
2023-02-26T10:28:38.942Z,36.90
2023-02-26T10:31:15.173Z,36.52
2023-02-26T10:33:54.954Z,35.84
2023-02-26T10:36:24.354Z,36.59
2023-02-26T10:38:52.721Z,36.19
2023-02-26T10:41:25.199Z,36.55
2023-02-26T10:43:56.972Z,36.77
2023-02-26T10:46:30.087Z,38.43
2023-02-26T10:49:16.261Z,39.36
2023-02-26T10:51:43.497Z,40.50
2023-02-26T10:54:19.887Z,39.38
2023-02-26T10:56:47.106Z,39.33
2023-02-26T10:59:16.645Z,38.76
2023-02-26T11:01:44.153Z,39.66
2023-02-26T11:04:31.539Z,39.89
2023-02-26T11:07:03.107Z,40.03
2023-02-26T11:09:41.272Z,41.72
2023-02-26T11:12:11.838Z,39.43
2023-02-26T11:14:39.014Z,37.65
2023-02-26T11:17:28.051Z,39.78
2023-02-26T11:19:57.458Z,37.86
2023-02-26T11:22:25.898Z,38.34
2023-02-26T11:24:53.174Z,37.90
2023-02-26T11:27:22.232Z,38.60
2023-02-26T11:29:56.858Z,38.26
2023-02-26T11:32:29.500Z,38.23
2023-02-26T11:34:56.670Z,40.19
2023-02-26T11:37:25.187Z,39.87
2023-02-26T11:39:55.576Z,36.64
2023-02-26T11:42:22.790Z,37.27
2023-02-26T11:44:50.383Z,36.84
2023-02-26T11:47:25.004Z,38.49
2023-02-26T11:49:56.169Z,36.50
2023-02-26T11:52:28.451Z,36.82
2023-02-26T11:54:59.790Z,36.80
2023-02-26T11:57:29.112Z,38.12
2023-02-26T11:59:58.050Z,39.71
2023-02-26T12:02:27.886Z,40.57
2023-02-26T12:04:56.311Z,40.27
2023-02-26T12:07:23.565Z,40.64
2023-02-26T12:09:50.833Z,42.76
2023-02-26T12:12:27.753Z,42.59
2023-02-26T12:15:14.610Z,42.77
2023-02-26T12:17:42.117Z,44.10
2023-02-26T12:20:15.285Z,42.69
2023-02-26T12:22:49.927Z,43.94
2023-02-26T12:25:23.380Z,43.67
2023-02-26T12:28:06.050Z,43.24
2023-02-26T12:30:51.861Z,44.33
2023-02-26T12:33:39.542Z,44.00
2023-02-26T12:36:09.863Z,43.36
2023-02-26T12:38:49.544Z,42.86
2023-02-26T12:41:22.810Z,43.24
2023-02-26T12:43:55.742Z,42.39
2023-02-26T12:46:23.296Z,42.33
2023-02-26T12:49:06.606Z,41.22
2023-02-26T12:51:36.908Z,41.18
2023-02-26T12:54:13.577Z,41.61
2023-02-26T12:56:59.906Z,44.08
2023-02-26T13:00:06.281Z,44.19
2023-02-26T13:02:33.441Z,44.52
2023-02-26T13:05:17.145Z,42.70
2023-02-26T13:08:03.003Z,43.51
2023-02-26T13:10:30.365Z,43.36
2023-02-26T13:13:06.317Z,42.59
2023-02-26T13:15:40.069Z,43.48
2023-02-26T13:18:11.273Z,41.91
2023-02-26T13:20:40.053Z,40.49
2023-02-26T13:23:14.376Z,40.12
2023-02-26T13:25:48.827Z,41.46
2023-02-26T13:28:19.257Z,41.05
2023-02-26T13:30:49.072Z,41.45
2023-02-26T13:33:18.067Z,40.43
2023-02-26T13:35:45.624Z,40.74
2023-02-26T13:38:28.771Z,40.68
2023-02-26T13:41:14.788Z,40.84
2023-02-26T13:44:05.429Z,40.02
2023-02-26T13:46:51.238Z,39.66
2023-02-26T13:49:21.577Z,39.17
2023-02-26T13:51:49.587Z,39.35
2023-02-26T13:54:17.423Z,39.49
2023-02-26T13:56:48.211Z,41.49
2023-02-26T13:59:19.578Z,40.36
2023-02-26T14:01:48.991Z,40.80
2023-02-26T14:04:19.654Z,40.04
2023-02-26T14:06:48.722Z,40.08
2023-02-26T14:09:21.928Z,40.78
2023-02-26T14:11:55.150Z,39.54
2023-02-26T14:14:22.461Z,40.34
2023-02-26T14:17:15.661Z,39.86
2023-02-26T14:20:08.962Z,39.77
2023-02-26T14:22:41.725Z,41.62
2023-02-26T14:25:18.689Z,41.21
2023-02-26T14:27:47.259Z,42.35
2023-02-26T14:30:32.937Z,43.81
2023-02-26T14:33:00.382Z,43.93
2023-02-26T14:35:40.889Z,45.03
2023-02-26T14:38:14.146Z,44.73
2023-02-26T14:40:46.464Z,45.34
2023-02-26T14:43:20.011Z,44.99
2023-02-26T14:45:47.486Z,44.73
2023-02-26T14:48:16.496Z,45.78
2023-02-26T14:50:48.192Z,45.89
2023-02-26T14:53:37.367Z,44.85
2023-02-26T14:56:09.637Z,44.15
2023-02-26T14:58:41.467Z,43.18
2023-02-26T15:01:27.489Z,44.36
2023-02-26T15:04:13.514Z,43.70
2023-02-26T15:06:59.839Z,43.79
2023-02-26T15:09:40.907Z,42.64
2023-02-26T15:12:11.153Z,43.51
2023-02-26T15:14:38.675Z,43.75
2023-02-26T15:17:09.747Z,43.46
2023-02-26T15:19:55.747Z,43.73
2023-02-26T15:22:23.318Z,43.47
2023-02-26T15:24:50.651Z,42.42
2023-02-26T15:27:18.342Z,43.38
2023-02-26T15:29:45.901Z,44.41
2023-02-26T15:32:15.087Z,45.59
2023-02-26T15:34:45.413Z,44.55
2023-02-26T15:37:20.087Z,43.42
2023-02-26T15:39:50.999Z,42.79
2023-02-26T15:42:21.829Z,41.68
2023-02-26T15:44:56.769Z,40.86
2023-02-26T15:47:25.115Z,41.08
2023-02-26T15:49:53.986Z,40.56
2023-02-26T15:52:22.172Z,40.12
2023-02-26T15:54:50.851Z,40.01
2023-02-26T15:57:18.103Z,39.59
2023-02-26T15:59:46.297Z,39.97
2023-02-26T16:02:19.160Z,39.59
2023-02-26T16:04:46.609Z,40.68
2023-02-26T16:07:13.922Z,39.39
2023-02-26T16:09:42.725Z,39.49
2023-02-26T16:12:17.542Z,40.57
2023-02-26T16:14:47.483Z,41.03
2023-02-26T16:17:17.201Z,40.23
2023-02-26T16:19:45.129Z,40.54
2023-02-26T16:22:23.862Z,40.52
2023-02-26T16:24:53.472Z,41.52
2023-02-26T16:27:20.606Z,40.38
2023-02-26T16:29:50.007Z,39.73
2023-02-26T16:32:18.167Z,40.29
2023-02-26T16:34:52.774Z,40.84
2023-02-26T16:37:27.776Z,39.37
2023-02-26T16:40:04.987Z,40.14
2023-02-26T16:42:41.915Z,40.72
2023-02-26T16:45:20.142Z,39.27
2023-02-26T16:47:48.968Z,40.20
2023-02-26T16:50:20.610Z,38.75
2023-02-26T16:52:48.994Z,37.81
2023-02-26T16:55:18.446Z,37.89
2023-02-26T16:57:46.196Z,38.18
2023-02-26T17:00:20.065Z,37.93
2023-02-26T17:02:48.685Z,37.56
2023-02-26T17:05:16.507Z,37.15
2023-02-26T17:07:48.323Z,36.94
2023-02-26T17:10:45.478Z,37.61
2023-02-26T17:13:17.050Z,37.34
2023-02-26T17:15:45.336Z,36.91
2023-02-26T17:18:13.191Z,37.03
2023-02-26T17:20:40.549Z,36.78
2023-02-26T17:23:09.354Z,36.56
2023-02-26T17:25:38.039Z,36.78
2023-02-26T17:28:05.344Z,36.09
2023-02-26T17:30:33.743Z,36.38
2023-02-26T17:33:01.708Z,36.11
2023-02-26T17:35:29.629Z,37.56
2023-02-26T17:37:57.459Z,37.22
2023-02-26T17:40:26.356Z,37.06
2023-02-26T17:42:53.841Z,39.23
2023-02-26T17:45:21.568Z,37.69
2023-02-26T17:47:50.072Z,38.65
2023-02-26T17:50:22.702Z,37.66
2023-02-26T17:52:50.183Z,38.03
2023-02-26T17:55:17.333Z,37.79
2023-02-26T17:57:44.499Z,38.69
2023-02-26T18:00:14.919Z,37.38
2023-02-26T18:02:42.717Z,38.45
2023-02-26T18:05:10.529Z,39.50
2023-02-26T18:07:38.064Z,37.46
2023-02-26T18:10:05.948Z,38.89
2023-02-26T18:12:33.424Z,37.75
2023-02-26T18:15:00.874Z,37.44
2023-02-26T18:17:31.117Z,37.86
2023-02-26T18:19:58.599Z,38.62
2023-02-26T18:22:27.545Z,37.57
2023-02-26T18:24:55.032Z,37.43
2023-02-26T18:27:23.242Z,37.75
2023-02-26T18:29:50.953Z,37.86
2023-02-26T18:32:19.710Z,37.66
2023-02-26T18:34:47.436Z,37.69
2023-02-26T18:37:15.540Z,37.44
2023-02-26T18:39:43.020Z,37.54
2023-02-26T18:42:14.560Z,37.31
2023-02-26T18:44:41.734Z,37.36
2023-02-26T18:47:09.092Z,37.30
2023-02-26T18:49:36.643Z,36.88
2023-02-26T18:52:03.985Z,36.78
2023-02-26T18:54:31.556Z,36.62
2023-02-26T18:56:59.054Z,36.78
2023-02-26T18:59:26.217Z,36.93
2023-02-26T19:01:53.468Z,37.25
2023-02-26T19:04:21.057Z,37.19
2023-02-26T19:06:51.564Z,37.09
2023-02-26T19:09:18.851Z,37.96
2023-02-26T19:11:46.393Z,37.64
2023-02-26T19:14:13.772Z,37.37
2023-02-26T19:16:43.711Z,37.47
2023-02-26T19:19:12.602Z,37.85
2023-02-26T19:21:41.082Z,37.90
2023-02-26T19:24:09.056Z,37.55
2023-02-26T19:26:36.804Z,37.82
2023-02-26T19:29:05.876Z,37.46
2023-02-26T19:31:33.640Z,37.79
2023-02-26T19:34:01.159Z,37.86
2023-02-26T19:36:33.462Z,37.77
2023-02-26T19:39:01.773Z,37.47
2023-02-26T19:41:29.177Z,37.48
2023-02-26T19:43:56.753Z,37.01
2023-02-26T19:46:24.589Z,37.30
2023-02-26T19:48:51.832Z,38.32
2023-02-26T19:51:19.206Z,37.66
2023-02-26T19:53:46.875Z,37.92
2023-02-26T19:56:14.114Z,37.35
2023-02-26T19:58:41.842Z,37.34
2023-02-26T20:01:09.554Z,37.04
2023-02-26T20:03:37.014Z,37.01
2023-02-26T20:06:04.599Z,37.03
2023-02-26T20:08:32.235Z,38.00
2023-02-26T20:10:59.727Z,37.39
2023-02-26T20:13:30.347Z,37.29
2023-02-26T20:16:00.991Z,36.70
2023-02-26T20:18:29.829Z,35.98
2023-02-26T20:20:57.965Z,35.97
2023-02-26T20:23:25.568Z,35.54
2023-02-26T20:25:56.679Z,35.94
2023-02-26T20:28:24.353Z,35.48
2023-02-26T20:30:52.055Z,35.34
2023-02-26T20:33:21.055Z,35.38
2023-02-26T20:35:48.952Z,35.46
2023-02-26T20:38:17.560Z,35.74
2023-02-26T20:40:45.616Z,37.15
2023-02-26T20:43:12.907Z,37.22
2023-02-26T20:45:40.560Z,37.63
2023-02-26T20:48:08.376Z,37.23
2023-02-26T20:50:36.284Z,36.86
2023-02-26T20:53:04.183Z,37.40
2023-02-26T20:55:31.597Z,36.93
2023-02-26T20:57:58.711Z,36.45
2023-02-26T21:00:25.993Z,36.31
2023-02-26T21:02:53.679Z,36.48
2023-02-26T21:05:21.208Z,36.67
2023-02-26T21:07:48.519Z,36.86
2023-02-26T21:10:16.449Z,37.38
2023-02-26T21:12:43.926Z,37.33
2023-02-26T21:15:11.453Z,36.66
2023-02-26T21:17:39.416Z,35.84
2023-02-26T21:20:07.139Z,35.47
2023-02-26T21:22:35.618Z,36.45
2023-02-26T21:25:03.732Z,36.01
2023-02-26T21:27:30.909Z,35.25
2023-02-26T21:29:58.409Z,35.97
2023-02-26T21:32:26.625Z,36.94
2023-02-26T21:34:53.882Z,36.82
2023-02-26T21:37:21.034Z,35.95
2023-02-26T21:39:48.470Z,36.76
2023-02-26T21:42:15.664Z,37.52
2023-02-26T21:44:42.882Z,35.34
2023-02-26T21:47:10.527Z,35.59
2023-02-26T21:49:37.786Z,35.33
2023-02-26T21:52:05.653Z,36.88
2023-02-26T21:54:33.438Z,34.28
2023-02-26T21:57:00.653Z,36.82
2023-02-26T21:59:27.900Z,38.07
2023-02-26T22:01:55.568Z,36.34
2023-02-26T22:04:23.234Z,35.51
2023-02-26T22:06:50.389Z,34.80
2023-02-26T22:09:19.172Z,35.35
2023-02-26T22:11:47.206Z,35.47
2023-02-26T22:14:15.387Z,35.35
2023-02-26T22:16:42.567Z,35.37
2023-02-26T22:19:09.998Z,35.45
2023-02-26T22:21:37.356Z,34.47
2023-02-26T22:24:05.299Z,34.01
2023-02-26T22:26:32.698Z,33.26
2023-02-26T22:29:00.776Z,33.16
2023-02-26T22:31:28.616Z,34.46
2023-02-26T22:33:57.366Z,35.46
2023-02-26T22:36:24.817Z,32.42
2023-02-26T22:38:52.016Z,33.51
2023-02-26T22:41:19.461Z,32.43
2023-02-26T22:43:46.569Z,33.92
2023-02-26T22:46:13.796Z,31.60
2023-02-26T22:48:41.245Z,31.16
2023-02-26T22:51:08.537Z,31.85
2023-02-26T22:53:35.680Z,33.56
2023-02-26T22:56:03.136Z,32.85
2023-02-26T22:58:30.280Z,32.00
2023-02-26T23:01:04.314Z,31.84
2023-02-26T23:03:31.912Z,30.48
2023-02-26T23:05:59.952Z,31.76
2023-02-26T23:08:27.163Z,34.75
2023-02-26T23:10:58.303Z,30.88
2023-02-26T23:13:25.882Z,30.78
2023-02-26T23:15:53.151Z,31.36
2023-02-26T23:18:20.684Z,31.20
2023-02-26T23:20:48.103Z,32.87
2023-02-26T23:23:15.607Z,32.09
2023-02-26T23:25:43.748Z,32.18
2023-02-26T23:28:11.123Z,30.52
2023-02-26T23:30:38.348Z,30.88
2023-02-26T23:33:07.250Z,32.20
2023-02-26T23:35:34.665Z,31.68
2023-02-26T23:38:01.874Z,31.39
2023-02-26T23:40:29.558Z,32.42
2023-02-26T23:42:56.677Z,33.03
2023-02-26T23:45:23.980Z,32.42
2023-02-26T23:47:51.407Z,32.65
2023-02-26T23:50:18.551Z,31.76
2023-02-26T23:52:45.825Z,31.59
2023-02-26T23:55:13.275Z,32.65
2023-02-26T23:57:40.508Z,31.09
